createdAt,value
2018-12-06T00:04:55.577Z,3.99
2018-12-06T00:10:58.931Z,4.08
2018-12-06T00:17:02.285Z,4.03
2018-12-06T00:23:05.668Z,4.33
2018-12-06T00:29:08.989Z,4.11
2018-12-06T00:35:12.332Z,4.24
2018-12-06T00:41:15.664Z,4.34
2018-12-06T00:47:19.001Z,4.22
2018-12-06T00:53:22.424Z,4.24
2018-12-06T00:59:25.755Z,4.24
2018-12-06T01:05:29.086Z,4.41
2018-12-06T01:11:32.706Z,4.41
2018-12-06T01:17:36.057Z,4.42
2018-12-06T01:23:39.397Z,4.46
2018-12-06T01:29:57.075Z,4.46
2018-12-06T01:36:00.398Z,4.56
2018-12-06T01:42:03.725Z,4.52
2018-12-06T01:48:07.307Z,4.40
2018-12-06T01:54:10.636Z,4.53
2018-12-06T02:00:14.827Z,4.44
2018-12-06T02:06:18.135Z,4.24
2018-12-06T02:12:21.460Z,4.32
2018-12-06T02:18:24.788Z,4.36
2018-12-06T02:24:28.110Z,4.21
2018-12-06T02:30:31.431Z,4.43
2018-12-06T02:36:34.793Z,4.56
2018-12-06T02:42:38.130Z,4.62
2018-12-06T02:48:41.460Z,4.58
2018-12-06T02:54:44.825Z,4.50
2018-12-06T03:00:48.163Z,4.61
2018-12-06T03:06:51.486Z,4.62
2018-12-06T03:12:54.807Z,4.66
2018-12-06T03:18:58.144Z,4.63
2018-12-06T03:25:01.672Z,4.57
2018-12-06T03:31:05.122Z,4.65
2018-12-06T03:37:08.452Z,4.65
2018-12-06T03:43:11.822Z,4.66
2018-12-06T03:49:15.147Z,4.75
2018-12-06T03:55:18.480Z,4.71
2018-12-06T04:01:21.805Z,4.68
2018-12-06T04:07:25.152Z,4.61
2018-12-06T04:13:28.488Z,4.69
2018-12-06T04:19:31.827Z,4.68
2018-12-06T04:25:35.154Z,4.71
2018-12-06T04:31:38.516Z,4.73
2018-12-06T04:37:41.840Z,4.80
2018-12-06T04:43:45.184Z,4.72
2018-12-06T04:49:48.514Z,4.71
2018-12-06T04:55:51.912Z,4.76
2018-12-06T05:01:55.288Z,4.73
2018-12-06T05:07:58.616Z,4.77
2018-12-06T05:14:01.941Z,4.86
2018-12-06T05:20:06.006Z,4.76
2018-12-06T05:26:09.352Z,4.83
2018-12-06T05:32:12.679Z,4.77
2018-12-06T05:38:16.015Z,4.78
2018-12-06T05:44:19.346Z,4.81
2018-12-06T05:50:22.662Z,4.84
2018-12-06T05:56:25.985Z,4.93
2018-12-06T06:02:29.313Z,4.84
2018-12-06T06:08:32.653Z,4.92
2018-12-06T06:14:36.742Z,4.86
2018-12-06T06:20:40.091Z,4.89
2018-12-06T06:26:43.437Z,4.95
2018-12-06T06:32:46.770Z,4.92
2018-12-06T06:38:50.095Z,5.03
2018-12-06T06:44:53.433Z,5.05
2018-12-06T06:50:56.762Z,5.21
2018-12-06T06:57:00.108Z,5.27
2018-12-06T07:03:03.531Z,5.23
2018-12-06T07:09:08.731Z,5.21
2018-12-06T07:15:12.087Z,5.19
2018-12-06T07:21:15.424Z,5.28
2018-12-06T07:27:18.759Z,5.31
2018-12-06T07:33:22.199Z,5.31
2018-12-06T07:39:25.527Z,5.38
2018-12-06T07:45:29.055Z,5.42
2018-12-06T07:51:32.540Z,5.56
2018-12-06T07:57:35.920Z,5.53
2018-12-06T08:03:39.244Z,5.64
2018-12-06T08:09:42.572Z,5.76
2018-12-06T08:15:45.907Z,5.79
2018-12-06T08:21:49.239Z,5.78
2018-12-06T08:27:52.571Z,5.79
2018-12-06T08:33:55.902Z,5.94
2018-12-06T08:39:59.230Z,5.93
2018-12-06T08:46:02.568Z,6.05
2018-12-06T08:52:05.985Z,6.34
2018-12-06T08:58:09.316Z,6.17
2018-12-06T09:04:12.640Z,6.27
2018-12-06T09:10:15.976Z,6.42
2018-12-06T09:16:19.305Z,6.32
2018-12-06T09:22:24.416Z,6.57
2018-12-06T09:28:27.994Z,6.51
2018-12-06T09:34:31.371Z,6.52
2018-12-06T09:40:34.715Z,6.60
2018-12-06T09:46:38.044Z,6.83
2018-12-06T09:52:41.383Z,7.06
2018-12-06T09:58:44.790Z,7.00
2018-12-06T10:04:48.134Z,7.00
2018-12-06T10:10:51.473Z,6.97
2018-12-06T10:16:55.011Z,6.73
2018-12-06T10:22:58.358Z,6.81
2018-12-06T10:29:01.699Z,6.86
2018-12-06T10:35:05.670Z,7.01
2018-12-06T10:41:08.987Z,7.15
2018-12-06T10:47:12.312Z,7.04
2018-12-06T10:53:15.641Z,7.19
2018-12-06T10:59:18.974Z,7.13
2018-12-06T11:05:22.306Z,7.19
2018-12-06T11:11:26.452Z,7.31
2018-12-06T11:17:29.984Z,7.08
2018-12-06T11:23:33.313Z,7.33
2018-12-06T11:29:36.637Z,7.11
2018-12-06T11:35:40.867Z,7.26
2018-12-06T11:41:44.326Z,7.24
2018-12-06T11:47:47.645Z,7.33
2018-12-06T11:53:50.976Z,7.53
2018-12-06T11:59:54.301Z,7.85
2018-12-06T12:05:58.803Z,7.65
2018-12-06T12:12:02.511Z,7.67
2018-12-06T12:18:05.916Z,7.83
2018-12-06T12:24:09.327Z,7.85
2018-12-06T12:30:12.750Z,8.05
2018-12-06T12:36:16.083Z,7.77
2018-12-06T12:42:19.408Z,7.73
2018-12-06T12:48:22.727Z,7.87
2018-12-06T12:54:26.049Z,7.84
2018-12-06T13:00:29.468Z,7.78
2018-12-06T13:06:32.789Z,7.92
2018-12-06T13:12:36.175Z,8.09
2018-12-06T13:18:39.516Z,8.07
2018-12-06T13:24:42.873Z,8.23
2018-12-06T13:30:46.204Z,8.29
2018-12-06T13:36:49.528Z,8.37
2018-12-06T13:42:52.854Z,8.40
2018-12-06T13:48:56.175Z,8.49
2018-12-06T13:54:59.512Z,8.53
2018-12-06T14:01:03.208Z,8.40
2018-12-06T14:07:06.703Z,8.51
2018-12-06T14:13:23.626Z,8.52
2018-12-06T14:19:24.042Z,8.55
2018-12-06T14:25:27.363Z,8.68
2018-12-06T14:31:30.699Z,8.85
2018-12-06T14:37:34.032Z,8.73
2018-12-06T14:43:37.336Z,8.93
2018-12-06T14:49:40.737Z,8.88
2018-12-06T14:55:44.086Z,8.99
2018-12-06T15:01:47.395Z,8.98
2018-12-06T15:07:50.695Z,9.14
2018-12-06T15:13:54.037Z,9.14
2018-12-06T15:19:57.468Z,9.13
2018-12-06T15:26:00.804Z,9.08
2018-12-06T15:32:04.203Z,9.25
2018-12-06T15:38:07.518Z,9.13
2018-12-06T15:44:17.431Z,9.31
2018-12-06T15:50:20.771Z,9.35
2018-12-06T15:56:24.099Z,9.46
2018-12-06T16:02:27.428Z,9.49
2018-12-06T16:08:31.410Z,9.55
2018-12-06T16:14:34.718Z,9.36
2018-12-06T16:20:38.059Z,9.50
2018-12-06T16:26:41.384Z,9.54
2018-12-06T16:32:44.709Z,9.52
2018-12-06T16:38:48.305Z,9.50
2018-12-06T16:44:51.633Z,9.54
2018-12-06T16:50:55.022Z,9.64
2018-12-06T16:56:58.341Z,9.52
2018-12-06T17:03:01.646Z,9.62
2018-12-06T17:09:06.983Z,9.57
2018-12-06T17:15:10.369Z,9.63
2018-12-06T17:21:13.684Z,9.68
2018-12-06T17:27:17.012Z,9.77
2018-12-06T17:33:20.323Z,9.84
2018-12-06T17:39:23.670Z,9.84
2018-12-06T17:45:26.990Z,9.84
2018-12-06T17:51:30.303Z,10.03
2018-12-06T17:57:33.625Z,9.97
2018-12-06T18:03:36.958Z,10.15
2018-12-06T18:09:40.269Z,10.00
2018-12-06T18:15:43.583Z,9.88
2018-12-06T18:21:46.903Z,10.09
2018-12-06T18:27:50.219Z,9.99
2018-12-06T18:33:53.536Z,10.07
2018-12-06T18:39:56.870Z,10.01
2018-12-06T18:46:00.184Z,9.97
2018-12-06T18:52:03.517Z,10.22
2018-12-06T18:58:06.834Z,10.17
2018-12-06T19:04:10.156Z,10.13
2018-12-06T19:10:13.486Z,10.41
2018-12-06T19:16:16.800Z,10.35
2018-12-06T19:23:06.394Z,10.62
2018-12-06T19:29:09.729Z,10.48
2018-12-06T19:35:13.150Z,10.43
2018-12-06T19:41:16.508Z,10.47
2018-12-06T19:47:19.841Z,10.51
2018-12-06T19:53:23.180Z,10.58
2018-12-06T19:59:26.547Z,10.59
2018-12-06T20:05:29.919Z,10.66
2018-12-06T20:11:33.255Z,10.63
2018-12-06T20:17:36.655Z,10.51
2018-12-06T20:23:39.995Z,10.59
2018-12-06T20:29:43.327Z,10.63
2018-12-06T20:35:46.733Z,10.67
2018-12-06T20:41:50.073Z,10.60
2018-12-06T20:47:53.424Z,10.59
2018-12-06T20:53:56.769Z,10.90
2018-12-06T21:00:00.120Z,10.67
2018-12-06T21:06:03.463Z,10.63
2018-12-06T21:12:06.808Z,10.89
2018-12-06T21:18:10.161Z,10.73
2018-12-06T21:24:13.541Z,10.91
2018-12-06T21:30:16.887Z,10.72
2018-12-06T21:36:20.226Z,10.66
2018-12-06T21:42:23.563Z,10.85
2018-12-06T21:48:27.707Z,10.65
2018-12-06T21:54:31.041Z,10.71
2018-12-06T22:00:34.443Z,10.69
2018-12-06T22:06:37.771Z,10.82
2018-12-06T22:12:41.107Z,10.88
2018-12-06T22:18:44.461Z,10.76
2018-12-06T22:24:47.830Z,10.79
2018-12-06T22:30:51.171Z,10.97
2018-12-06T22:36:54.531Z,10.79
2018-12-06T22:42:57.863Z,10.98
2018-12-06T22:49:01.215Z,10.85
2018-12-06T22:55:05.217Z,10.93
2018-12-06T23:01:10.839Z,10.86
2018-12-06T23:07:14.167Z,11.07
2018-12-06T23:13:17.531Z,10.97
2018-12-06T23:19:20.875Z,10.93
2018-12-06T23:25:24.242Z,11.02
2018-12-06T23:31:27.705Z,11.10
2018-12-06T23:37:31.047Z,11.16
2018-12-06T23:43:34.487Z,11.32
2018-12-06T23:49:37.839Z,11.25
2018-12-06T23:55:41.169Z,11.34
